Share

Broadview, MT (59015)

7:01 PM MDT on April 23, 2014 (GMT -0600)
Billings Logan International (KBIL) Elev 3570 ft | 45.81 °N, 108.54 °W | Change Station

Current weather conditions updated 8 minutes ago

Scattered Clouds
Scattered Clouds
51 °F
Feels Like 51 °F
N
26
Wind Variable Wind from West
Gusts 33 mph
Sunrise 6:14 AM
Sunset 8:13 PM
Moon Waning Crescent

Tomorrow is forecast to be Warmer than today. Showers early tomorrow night.

Pressure 29.77 in
Visibility 10.0 miles
Clouds Scattered Clouds 9500 ft
Scattered Clouds 14000 ft
Dew Point 16 °F
Humidity 25%
Rainfall 0.00 in
Snow Depth Not available.
UV 1 out of 16
Pollen 7.60 out of 12
Air Quality Not available.
Flu Activity Sporadic
METAR KBIL 240053Z 28023G29KT 10SM SCT095 SCT140 11/M09 A2976 RMK AO2 PK WND 28032/0007 SLP079 VIRGA N SHRA DSNT SW-E T01061089

More Conditions Fewer Conditions

Pressure 29.77 in
Visibility 10.0 miles
Clouds Scattered Clouds 9500 ft
Scattered Clouds 14000 ft
Dew Point 16 °F
Humidity 25%
Rainfall 0.00 in
Snow Depth Not available.
UV 1 out of 16
Pollen 7.60 out of 12
Air Quality Not available.
Flu Activity Sporadic
METAR KBIL 240053Z 28023G29KT 10SM SCT095 SCT140 11/M09 A2976 RMK AO2 PK WND 28032/0007 SLP079 VIRGA N SHRA DSNT SW-E T01061089

More Conditions Fewer Conditions

10-Day Weather Forecast

Almanac

Astronomy

Apr. 23, 2014 Rise Set
Actual Time 6:14 AM MDT 8:13 PM MDT
Civil Twilight 5:42 AM MDT 8:46 PM MDT
Nautical Twilight 5:03 AM MDT 9:26 PM MDT
Astronomical Twilight 4:19 AM MDT 10:10 PM MDT
Moon 3:09 AM MDT (4/23) 2:06 PM MDT (4/23)
Length of Visible Light 15h 03m
Length of Day
13h 58m
Tomorrow will be 3m 1s longer.
Waning Crescent, 31% of the Moon is Illuminated
Today
Waning Crescent
Apr 29
New
May 6
First Quarter
May 14
Full
May 21
Last Quarter

Today's Extremes

State Highs State Lows

Community

  • Nestled In
    Nestled In
  • Stunning Sunrise
    Stunning Sunrise
  • spring flowers
    spring flowers
  • Earth Day Spectrum Ove' Blue
    Earth Day Spectrum Ove' Blue
  • BARN B&W
    BARN B&W

WunderPhotos

Upload Photos

1,704,482 photos uploaded!

Nearby

Snow Depth

Station Depth Elevation
Crystal Lake 50 in 6050 ft
Burnt Mountain 17 in 5880 ft
Cole Creek 68 in 7850 ft
South Fork Shields 70 in 8100 ft
Daisy Peak 46 in 7600 ft

Coastal Water Temperatures

Place Temperature
No Stations Reporting

Earthquake Activity

City Distance Mag. Time & Date
No recent earthquake activity has been reported nearby.
Minimum magnitude displayed is 2.5.

Nearby Weather Stations

There are no personal weather stations in this area.

What do you think?

We're not finished. Please let us know what you like, what you don't like, and what you are still missing.